Time;durP1;ratioP1;P1;durP2;ratioP2;P2;SDS_P1;SDS_P2;PMS_P1;PMS_P2;Temp;Humidity;BMP_temperature;BMP_pressure;BME280_temperature;BME280_humidity;BME280_pressure;Samples;Min_cycle;Max_cycle;Signal;HPM_P1;HPM_P2
2023/01/25 00:02:08;;;;;;;20.75;14.70;;;1.50;99.90;;;;;;4996507;28;20128;-84
2023/01/25 00:04:33;;;;;;;21.23;15.45;;;1.50;99.90;;;;;;4987337;28;20134;-84
2023/01/25 00:06:59;;;;;;;23.15;17.10;;;1.50;99.90;;;;;;4995420;28;20072;-84
2023/01/25 00:09:25;;;;;;;26.45;18.13;;;1.50;99.90;;;;;;4995520;28;20530;-85
2023/01/25 00:11:52;;;;;;;26.70;18.42;;;1.40;99.90;;;;;;4995865;28;20489;-83
2023/01/25 00:14:19;;;;;;;26.80;18.77;;;1.40;99.90;;;;;;4996560;28;20037;-84
2023/01/25 00:16:45;;;;;;;26.05;18.15;;;1.30;99.90;;;;;;4996230;28;20030;-83
2023/01/25 00:19:11;;;;;;;27.65;18.92;;;1.30;99.90;;;;;;4996271;28;20034;-84
2023/01/25 00:21:38;;;;;;;28.17;18.98;;;1.30;99.90;;;;;;4979532;28;20076;-84
2023/01/25 00:24:05;;;;;;;28.83;19.25;;;1.30;99.90;;;;;;4979732;28;20042;-84
2023/01/25 00:26:32;;;;;;;25.75;18.70;;;1.30;99.90;;;;;;4963222;28;20041;-84
2023/01/25 00:28:58;;;;;;;24.65;18.33;;;1.30;99.90;;;;;;4995823;28;20041;-85
2023/01/25 00:31:56;;;;;;;22.13;15.85;;;1.30;99.90;;;;;;4979466;28;20522;-85
2023/01/25 00:34:58;;;;;;;22.40;15.35;;;1.40;99.90;;;;;;4990680;28;20490;-84
2023/01/25 00:37:34;;;;;;;21.55;14.65;;;1.30;99.90;;;;;;4990914;28;20042;-84
2023/01/25 00:40:00;;;;;;;20.60;14.65;;;1.40;99.90;;;;;;5013689;28;20045;-85
2023/01/25 00:42:26;;;;;;;21.17;14.15;;;1.40;99.90;;;;;;4995107;28;20033;-82
2023/01/25 00:44:53;;;;;;;21.15;14.43;;;1.40;99.90;;;;;;4979007;28;20034;-83
2023/01/25 00:47:19;;;;;;;21.60;15.85;;;1.40;99.90;;;;;;4994570;28;20065;-84
2023/01/25 00:49:47;;;;;;;22.48;15.55;;;1.40;99.90;;;;;;4995626;28;20525;-82
2023/01/25 00:52:13;;;;;;;23.17;16.27;;;1.40;99.90;;;;;;4978876;28;20042;-82
2023/01/25 00:54:40;;;;;;;24.92;17.25;;;1.40;99.90;;;;;;4960468;28;20475;-84
2023/01/25 00:57:07;;;;;;;25.50;17.63;;;1.40;99.90;;;;;;4979518;28;20066;-84
2023/01/25 00:59:33;;;;;;;21.67;14.80;;;1.30;99.90;;;;;;4980779;28;20054;-84
2023/01/25 01:02:00;;;;;;;22.58;15.30;;;1.30;99.90;;;;;;4980064;28;20043;-83
2023/01/25 01:04:26;;;;;;;24.98;17.13;;;1.30;99.90;;;;;;4975556;28;20027;-85
2023/01/25 01:06:52;;;;;;;21.02;15.32;;;1.30;99.90;;;;;;4990239;28;20058;-83
2023/01/25 01:09:20;;;;;;;24.92;17.98;;;1.30;99.90;;;;;;4970378;28;20070;-84
2023/01/25 01:11:46;;;;;;;25.67;17.80;;;1.30;99.90;;;;;;4963074;28;20042;-84
2023/01/25 01:14:13;;;;;;;24.15;16.35;;;1.30;99.90;;;;;;4977083;28;20039;-84
2023/01/25 01:16:38;;;;;;;23.70;16.50;;;1.30;99.90;;;;;;4995606;28;20122;-84
2023/01/25 01:19:05;;;;;;;22.63;16.23;;;1.30;99.90;;;;;;4973614;28;20059;-84
2023/01/25 01:21:31;;;;;;;21.45;15.77;;;1.30;99.90;;;;;;4975687;28;20427;-84
2023/01/25 01:23:57;;;;;;;23.13;17.00;;;1.30;99.90;;;;;;4979328;28;20053;-84
2023/01/25 01:26:23;;;;;;;23.17;15.05;;;1.30;99.90;;;;;;4947310;28;20534;-84
2023/01/25 01:28:53;;;;;;;21.80;15.35;;;1.30;99.90;;;;;;4980053;28;20490;-83
2023/01/25 01:31:22;;;;;;;22.33;16.15;;;1.30;99.90;;;;;;4970893;28;20445;-84
2023/01/25 01:34:00;;;;;;;22.10;15.85;;;1.30;99.90;;;;;;4996786;28;20046;-84
2023/01/25 01:36:28;;;;;;;22.23;15.23;;;1.30;99.90;;;;;;4982090;28;20046;-85
2023/01/25 01:38:54;;;;;;;19.40;13.18;;;1.30;99.90;;;;;;4982684;28;20478;-84
2023/01/25 01:41:21;;;;;;;18.98;13.63;;;1.30;99.90;;;;;;4971049;28;20446;-84
2023/01/25 01:43:49;;;;;;;19.25;13.20;;;1.30;99.90;;;;;;4986798;28;20467;-84
2023/01/25 01:46:38;;;;;;;18.85;12.63;;;1.30;99.90;;;;;;4984274;28;20041;-84
2023/01/25 01:49:12;;;;;;;20.60;14.30;;;1.40;99.90;;;;;;4984719;28;20038;-85
2023/01/25 01:51:53;;;;;;;22.45;15.25;;;1.40;99.90;;;;;;4982746;28;20463;-84
2023/01/25 01:54:48;;;;;;;20.83;15.07;;;1.30;99.90;;;;;;4997629;28;20442;-84
2023/01/25 01:57:17;;;;;;;20.88;14.73;;;1.30;99.90;;;;;;4992748;28;20046;-83
2023/01/25 01:59:49;;;;;;;19.08;13.60;;;1.30;99.90;;;;;;4997407;28;20049;-84
2023/01/25 02:02:16;;;;;;;20.13;14.02;;;1.30;99.90;;;;;;5015391;28;20029;-85
2023/01/25 02:04:46;;;;;;;19.63;14.25;;;1.30;99.90;;;;;;5016766;28;20030;-84
2023/01/25 02:07:35;;;;;;;24.23;17.13;;;1.30;99.90;;;;;;4982754;28;20065;-84
2023/01/25 02:10:06;;;;;;;22.00;15.60;;;1.30;99.90;;;;;;4999200;28;20040;-84
2023/01/25 02:12:34;;;;;;;22.00;14.50;;;1.20;99.90;;;;;;4999085;28;20034;-84
2023/01/25 02:14:59;;;;;;;21.30;15.00;;;1.20;99.90;;;;;;4998528;28;20374;-84
2023/01/25 02:17:33;;;;;;;22.25;15.90;;;1.30;99.90;;;;;;4982599;28;20037;-84
2023/01/25 02:20:27;;;;;;;21.88;15.85;;;1.20;99.90;;;;;;4998467;28;20123;-84
2023/01/25 02:23:09;;;;;;;24.08;16.95;;;1.20;99.90;;;;;;5015205;28;20046;-84
2023/01/25 02:25:35;;;;;;;23.23;16.08;;;1.20;99.90;;;;;;5016424;28;20026;-85
2023/01/25 02:28:35;;;;;;;23.48;16.17;;;1.20;99.90;;;;;;4998789;28;20083;-84
2023/01/25 02:31:00;;;;;;;22.50;15.10;;;1.20;99.90;;;;;;5015387;28;20030;-84
2023/01/25 02:33:27;;;;;;;23.50;14.80;;;1.20;99.90;;;;;;4998274;28;20033;-83
2023/01/25 02:35:59;;;;;;;22.27;15.98;;;1.20;99.90;;;;;;4982154;28;20196;-84
2023/01/25 02:38:25;;;;;;;21.77;15.77;;;1.20;99.90;;;;;;4998691;28;20042;-84
2023/01/25 02:41:05;;;;;;;22.92;15.50;;;1.20;99.90;;;;;;4982283;28;20087;-85
2023/01/25 02:43:33;;;;;;;23.60;15.38;;;1.20;99.90;;;;;;5015822;28;20033;-84
2023/01/25 02:46:14;;;;;;;21.60;14.95;;;1.20;99.90;;;;;;4998553;28;20490;-84
2023/01/25 02:48:40;;;;;;;20.63;14.35;;;1.20;99.90;;;;;;4998305;28;20164;-84
2023/01/25 02:51:09;;;;;;;22.25;14.48;;;1.10;99.90;;;;;;4981641;28;20053;-83
2023/01/25 02:53:35;;;;;;;20.00;14.23;;;1.10;99.90;;;;;;4981836;28;20054;-84
2023/01/25 02:56:01;;;;;;;20.80;13.88;;;1.10;99.90;;;;;;5014324;28;20037;-83
2023/01/25 02:58:27;;;;;;;22.48;15.57;;;1.20;99.90;;;;;;4998051;28;20045;-84
2023/01/25 03:00:56;;;;;;;27.05;18.55;;;1.10;99.90;;;;;;4982009;28;20470;-84
2023/01/25 03:03:22;;;;;;;27.20;19.10;;;1.10;99.90;;;;;;5015337;28;20482;-84
2023/01/25 03:05:48;;;;;;;26.27;18.20;;;1.10;99.90;;;;;;4981897;28;20046;-84
2023/01/25 03:08:14;;;;;;;25.17;16.70;;;1.10;99.90;;;;;;4981735;28;20092;-84
2023/01/25 03:10:40;;;;;;;25.02;17.35;;;1.00;99.90;;;;;;5015046;28;20037;-83
2023/01/25 03:13:06;;;;;;;22.92;15.90;;;1.00;99.90;;;;;;4997835;28;20037;-84
2023/01/25 03:15:33;;;;;;;25.02;17.10;;;1.00;99.90;;;;;;4998220;28;20545;-83
2023/01/25 03:18:01;;;;;;;28.15;17.58;;;1.00;99.90;;;;;;4997977;28;20057;-84
2023/01/25 03:20:27;;;;;;;24.27;16.85;;;1.00;99.90;;;;;;4997682;28;20037;-84
2023/01/25 03:22:55;;;;;;;24.88;16.70;;;1.00;99.90;;;;;;5015682;28;20359;-85
2023/01/25 03:25:21;;;;;;;24.80;17.23;;;1.00;99.90;;;;;;4997056;28;20462;-85
2023/01/25 03:27:49;;;;;;;23.40;15.85;;;1.00;99.90;;;;;;4997993;28;20089;-84
2023/01/25 03:30:16;;;;;;;24.35;16.33;;;1.00;99.90;;;;;;5015135;28;20030;-85
2023/01/25 03:32:42;;;;;;;27.45;19.08;;;1.00;99.90;;;;;;5014248;28;20030;-84
2023/01/25 03:35:09;;;;;;;28.13;20.10;;;1.00;99.90;;;;;;5014826;28;20079;-84
2023/01/25 03:37:35;;;;;;;26.08;17.92;;;1.00;99.90;;;;;;4997517;28;20037;-84
2023/01/25 03:40:05;;;;;;;24.67;17.88;;;0.90;99.90;;;;;;4997343;28;20069;-85
2023/01/25 03:42:31;;;;;;;26.58;18.08;;;1.00;99.90;;;;;;4997414;28;20038;-85
2023/01/25 03:44:56;;;;;;;24.25;17.17;;;1.00;99.90;;;;;;4997056;28;20116;-84
2023/01/25 03:47:23;;;;;;;26.30;17.02;;;1.00;99.90;;;;;;4981325;28;20029;-85
2023/01/25 03:49:49;;;;;;;25.67;17.77;;;1.00;99.90;;;;;;4997411;28;20036;-85
2023/01/25 03:52:15;;;;;;;26.65;17.13;;;1.00;99.90;;;;;;4997049;28;20061;-84
2023/01/25 03:54:41;;;;;;;26.30;17.55;;;1.00;99.90;;;;;;4997110;28;20470;-85
2023/01/25 03:57:06;;;;;;;24.95;17.27;;;1.00;99.90;;;;;;4997109;28;20463;-85
2023/01/25 03:59:32;;;;;;;23.83;17.05;;;1.00;99.90;;;;;;5014030;28;20038;-84
2023/01/25 04:01:58;;;;;;;22.55;16.27;;;1.00;99.90;;;;;;4996891;28;20401;-84
2023/01/25 04:04:23;;;;;;;27.45;18.25;;;1.00;99.90;;;;;;4997018;28;20067;-84
2023/01/25 04:06:49;;;;;;;27.02;18.55;;;1.00;99.90;;;;;;5014113;28;20140;-84
2023/01/25 04:09:16;;;;;;;28.50;19.00;;;1.00;99.90;;;;;;4980781;28;20045;-83
2023/01/25 04:11:42;;;;;;;26.42;17.90;;;0.90;99.90;;;;;;4996742;28;20033;-84
2023/01/25 04:14:09;;;;;;;28.10;18.10;;;0.90;99.90;;;;;;4996783;28;20128;-84
2023/01/25 04:16:35;;;;;;;23.90;16.35;;;0.90;99.90;;;;;;4964866;28;20038;-84
2023/01/25 04:19:02;;;;;;;25.75;18.75;;;0.90;99.90;;;;;;4980303;28;20042;-84
2023/01/25 04:21:28;;;;;;;24.70;17.15;;;0.90;99.90;;;;;;4980712;28;20046;-84
2023/01/25 04:23:54;;;;;;;24.02;16.33;;;1.00;99.90;;;;;;4996455;28;20041;-83
2023/01/25 04:26:22;;;;;;;24.63;17.08;;;0.90;99.90;;;;;;4980428;28;20034;-83
2023/01/25 04:28:49;;;;;;;23.95;16.02;;;0.90;99.90;;;;;;4980546;28;20046;-83
2023/01/25 04:31:16;;;;;;;23.20;16.17;;;0.90;99.90;;;;;;4996424;28;20038;-83
2023/01/25 04:33:41;;;;;;;23.70;15.25;;;0.90;99.90;;;;;;4996370;28;20540;-85
2023/01/25 04:36:07;;;;;;;23.10;15.80;;;0.90;99.90;;;;;;5013650;28;20042;-85
2023/01/25 04:38:34;;;;;;;22.42;15.82;;;1.00;99.90;;;;;;5014020;28;20033;-84
2023/01/25 04:41:00;;;;;;;30.92;20.25;;;0.90;99.90;;;;;;4996066;28;20061;-86
2023/01/25 04:43:26;;;;;;;30.58;20.63;;;0.90;99.90;;;;;;4979642;28;20061;-85
2023/01/25 04:45:51;;;;;;;26.45;18.40;;;0.90;99.90;;;;;;4995232;28;20037;-84
2023/01/25 04:48:17;;;;;;;30.50;20.10;;;0.90;99.90;;;;;;4996394;28;20033;-85
2023/01/25 04:50:43;;;;;;;29.90;19.20;;;0.80;99.90;;;;;;4996436;28;20046;-85
2023/01/25 04:53:10;;;;;;;34.30;22.85;;;0.80;99.90;;;;;;4996085;28;20470;-85
2023/01/25 04:55:39;;;;;;;34.60;22.65;;;0.70;99.90;;;;;;5013883;28;20397;-85
2023/01/25 04:58:05;;;;;;;33.78;22.73;;;0.70;99.90;;;;;;4996173;28;20037;-85
2023/01/25 05:00:31;;;;;;;40.90;26.77;;;0.60;99.90;;;;;;4996226;28;20038;-85
2023/01/25 05:02:56;;;;;;;35.42;23.40;;;0.60;99.90;;;;;;4996582;28;20034;-84
2023/01/25 05:05:27;;;;;;;36.38;24.00;;;0.50;99.90;;;;;;4996016;28;20050;-84
2023/01/25 05:07:53;;;;;;;33.80;22.52;;;0.50;99.90;;;;;;4996253;28;20065;-84
2023/01/25 05:10:22;;;;;;;32.63;21.73;;;0.60;99.90;;;;;;5003622;28;20081;-84
2023/01/25 05:12:47;;;;;;;34.15;22.48;;;0.60;99.90;;;;;;5018761;28;20389;-83
2023/01/25 05:15:16;;;;;;;33.22;22.42;;;0.60;99.90;;;;;;5018991;28;20030;-84
2023/01/25 05:17:43;;;;;;;30.88;19.77;;;0.60;99.90;;;;;;5002992;28;20046;-84
2023/01/25 05:20:12;;;;;;;27.95;18.95;;;0.60;99.90;;;;;;4981273;28;20389;-84
2023/01/25 05:22:40;;;;;;;28.65;18.98;;;0.70;99.90;;;;;;4964858;28;20453;-84
2023/01/25 05:26:59;;;;;;;30.20;19.27;;;0.70;99.90;;;;;;4980224;28;20104;-84
2023/01/25 05:28:12;;;;;;;35.00;22.70;;;0.80;99.90;;;;;;5012173;28;20041;-84
2023/01/25 05:30:38;;;;;;;31.88;20.70;;;0.70;99.90;;;;;;5013420;28;20125;-85
2023/01/25 05:33:06;;;;;;;32.83;22.00;;;0.70;99.90;;;;;;4995881;28;20109;-84
2023/01/25 05:35:33;;;;;;;29.67;19.88;;;0.70;99.90;;;;;;4995711;28;20030;-84
2023/01/25 05:37:59;;;;;;;30.58;20.38;;;0.70;99.90;;;;;;4995397;28;20033;-86
2023/01/25 05:40:26;;;;;;;29.38;19.10;;;0.70;99.90;;;;;;4979497;28;20045;-84
2023/01/25 05:42:56;;;;;;;31.40;19.92;;;0.70;99.90;;;;;;4978201;28;20049;-83
2023/01/25 05:45:23;;;;;;;26.85;17.42;;;0.70;99.90;;;;;;4995143;28;20538;-84
2023/01/25 05:47:53;;;;;;;31.13;19.98;;;0.70;99.90;;;;;;4994142;28;20502;-84
2023/01/25 05:50:20;;;;;;;31.73;20.60;;;0.70;99.90;;;;;;4994506;28;20038;-84
2023/01/25 05:52:47;;;;;;;30.15;19.05;;;0.70;99.90;;;;;;4977947;28;20045;-84
2023/01/25 05:55:16;;;;;;;29.83;18.98;;;0.70;99.90;;;;;;5012537;28;20061;-84
2023/01/25 05:57:43;;;;;;;29.95;19.67;;;0.70;99.90;;;;;;4996966;28;20050;-86
2023/01/25 06:00:10;;;;;;;26.80;17.65;;;0.70;99.90;;;;;;5012048;28;20049;-84
2023/01/25 06:02:40;;;;;;;26.45;17.60;;;0.70;99.90;;;;;;5015271;28;20037;-84
2023/01/25 06:05:08;;;;;;;25.38;16.48;;;0.80;99.90;;;;;;4981333;28;20049;-85
2023/01/25 06:07:39;;;;;;;26.50;16.60;;;0.80;99.90;;;;;;4981538;28;20049;-84
2023/01/25 06:10:07;;;;;;;23.23;14.98;;;0.80;99.90;;;;;;4997593;28;20040;-84
2023/01/25 06:12:33;;;;;;;28.33;18.60;;;0.80;99.90;;;;;;4998033;28;20480;-85
2023/01/25 06:14:59;;;;;;;26.75;17.05;;;0.80;99.90;;;;;;5010329;28;20481;-86
2023/01/25 06:17:27;;;;;;;27.27;17.25;;;0.70;99.90;;;;;;4991588;28;20038;-86
2023/01/25 06:19:53;;;;;;;28.30;18.70;;;0.70;99.90;;;;;;4981652;28;20049;-86
2023/01/25 06:22:19;;;;;;;27.25;17.10;;;0.70;99.90;;;;;;5011416;28;20073;-85
2023/01/25 06:24:48;;;;;;;32.53;20.15;;;0.70;99.90;;;;;;4996107;28;20042;-85
2023/01/25 06:27:15;;;;;;;31.17;20.30;;;0.70;99.90;;;;;;4999633;28;20497;-85
2023/01/25 06:29:42;;;;;;;32.85;20.50;;;0.70;99.90;;;;;;4997915;28;20521;-85
2023/01/25 06:32:19;;;;;;;30.05;18.80;;;0.70;99.90;;;;;;5001398;28;20056;-86
2023/01/25 06:34:45;;;;;;;28.52;18.55;;;0.70;99.90;;;;;;5014088;28;20041;-85
2023/01/25 06:37:11;;;;;;;29.27;19.08;;;0.70;99.90;;;;;;5010109;28;20125;-85
2023/01/25 06:39:38;;;;;;;30.30;19.00;;;0.70;99.90;;;;;;5013086;28;20124;-84
2023/01/25 06:42:04;;;;;;;30.73;18.85;;;0.70;99.90;;;;;;5010979;28;20050;-85
2023/01/25 06:44:34;;;;;;;28.90;18.55;;;0.70;99.90;;;;;;4997725;28;20037;-85
2023/01/25 06:47:04;;;;;;;26.75;17.23;;;0.70;99.90;;;;;;5014390;28;20030;-85
2023/01/25 06:49:37;;;;;;;29.23;17.95;;;0.70;99.90;;;;;;4998573;28;20041;-85
2023/01/25 06:52:03;;;;;;;28.45;18.30;;;0.60;99.90;;;;;;4998720;28;20030;-85
2023/01/25 06:54:29;;;;;;;40.33;24.95;;;0.60;99.90;;;;;;4997497;28;20081;-85
2023/01/25 06:56:58;;;;;;;42.75;26.70;;;0.60;99.90;;;;;;5014372;28;20034;-86
2023/01/25 06:59:38;;;;;;;36.47;23.30;;;0.60;99.90;;;;;;5010750;28;20132;-85
2023/01/25 07:02:14;;;;;;;38.25;24.20;;;0.50;99.90;;;;;;4996888;28;20053;-84
2023/01/25 07:04:42;;;;;;;36.65;22.80;;;0.50;99.90;;;;;;4997818;28;20460;-85
2023/01/25 07:07:19;;;;;;;34.20;22.13;;;0.50;99.90;;;;;;5014005;28;20041;-85
2023/01/25 07:10:01;;;;;;;;;;;;;;;;;;;;;
2023/01/25 07:12:32;;;;;;;35.42;22.95;;;0.50;99.90;;;;;;5015086;28;20040;-84
2023/01/25 07:15:01;;;;;;;32.97;21.13;;;0.50;99.90;;;;;;4996756;28;20049;-85
2023/01/25 07:17:32;;;;;;;33.60;20.75;;;0.50;99.90;;;;;;4997663;28;20037;-84
2023/01/25 07:20:05;;;;;;;35.53;21.48;;;0.50;99.90;;;;;;5015139;28;20478;-85
2023/01/25 07:23:07;;;;;;;35.53;22.65;;;0.50;99.90;;;;;;4997085;28;20038;-85
2023/01/25 07:25:46;;;;;;;34.65;20.98;;;0.50;99.90;;;;;;4997001;28;20046;-84
2023/01/25 07:28:24;;;;;;;39.63;24.75;;;0.50;99.90;;;;;;4980943;28;20121;-84
2023/01/25 07:30:55;;;;;;;40.60;24.33;;;0.50;99.90;;;;;;5014774;28;20068;-83
2023/01/25 07:33:43;;;;;;;38.60;23.15;;;0.50;99.90;;;;;;4997369;28;20084;-85
2023/01/25 07:36:26;;;;;;;38.78;24.00;;;0.40;99.90;;;;;;4990582;28;20041;-85
2023/01/25 07:38:56;;;;;;;34.60;20.60;;;0.50;99.90;;;;;;4996868;28;20053;-84
2023/01/25 07:41:29;;;;;;;32.03;20.42;;;0.50;99.90;;;;;;4997406;28;20470;-85
2023/01/25 07:43:58;;;;;;;35.97;21.83;;;0.50;99.90;;;;;;4996882;28;20489;-85
2023/01/25 07:46:33;;;;;;;40.35;24.67;;;0.50;99.90;;;;;;4997430;28;20057;-84
2023/01/25 07:49:06;;;;;;;37.42;22.25;;;0.50;99.90;;;;;;4997150;28;20045;-84
2023/01/25 07:51:34;;;;;;;39.85;24.85;;;0.50;99.90;;;;;;4997136;28;20373;-86
2023/01/25 07:54:04;;;;;;;43.72;26.98;;;0.50;99.90;;;;;;5013453;28;20080;-85
2023/01/25 07:56:39;;;;;;;43.88;26.20;;;0.40;99.90;;;;;;4996363;28;20044;-84
2023/01/25 07:59:07;;;;;;;44.25;25.42;;;0.40;99.90;;;;;;4980629;28;20042;-84
2023/01/25 08:01:35;;;;;;;44.53;26.63;;;0.40;99.90;;;;;;4997418;28;20038;-84
2023/01/25 08:04:07;;;;;;;41.03;24.40;;;0.40;99.90;;;;;;4997742;28;20037;-84
2023/01/25 08:06:42;;;;;;;44.17;25.90;;;0.40;99.90;;;;;;4996588;28;20049;-84
2023/01/25 08:09:14;;;;;;;44.80;26.35;;;0.40;99.90;;;;;;4981463;28;20508;-85
2023/01/25 08:11:48;;;;;;;43.88;26.35;;;0.40;99.90;;;;;;4996203;28;20034;-84
2023/01/25 08:14:17;;;;;;;;;;;0.30;99.90;;;;;;4996608;28;20133;-83
2023/01/25 08:16:50;;;;;;;46.08;28.20;;;0.30;99.90;;;;;;4980097;28;19916;-84
2023/01/25 08:19:19;;;;;;;45.75;26.88;;;0.30;99.90;;;;;;4994403;28;20030;-84
2023/01/25 08:21:48;;;;;;;45.90;27.38;;;0.30;99.90;;;;;;4980344;28;20077;-84
2023/01/25 08:24:15;;;;;;;42.72;26.02;;;0.40;99.90;;;;;;4996416;28;20101;-84
2023/01/25 08:26:44;;;;;;;38.80;23.73;;;0.40;99.90;;;;;;4996111;28;20065;-84
2023/01/25 08:29:17;;;;;;;41.67;24.80;;;0.40;99.90;;;;;;4996285;28;20485;-84
2023/01/25 08:31:44;;;;;;;38.97;24.08;;;0.50;99.90;;;;;;4979466;28;20402;-84
2023/01/25 08:34:24;;;;;;;43.33;25.83;;;0.50;99.90;;;;;;5012337;28;20033;-84
2023/01/25 08:36:54;;;;;;;44.05;26.42;;;0.50;99.90;;;;;;4995834;28;20042;-84
2023/01/25 08:39:27;;;;;;;43.58;24.65;;;0.40;99.90;;;;;;4995958;28;20371;-85
2023/01/25 08:41:56;;;;;;;44.28;25.98;;;0.40;99.90;;;;;;4996496;28;20046;-85
2023/01/25 08:44:24;;;;;;;46.00;27.33;;;0.40;99.90;;;;;;4963783;28;20091;-84
2023/01/25 08:47:04;;;;;;;55.00;31.05;;;0.40;99.90;;;;;;4996676;28;20054;-84
2023/01/25 08:49:34;;;;;;;48.63;28.33;;;0.40;99.90;;;;;;4995955;28;20104;-84
2023/01/25 08:52:09;;;;;;;57.65;33.38;;;0.30;99.90;;;;;;4980385;28;20038;-84
2023/01/25 08:54:37;;;;;;;49.35;29.65;;;0.30;99.90;;;;;;5013187;28;20111;-85
2023/01/25 08:57:07;;;;;;;47.80;29.05;;;0.30;99.90;;;;;;5012110;28;20223;-84
2023/01/25 08:59:41;;;;;;;49.15;28.40;;;0.30;99.90;;;;;;4995790;28;20078;-85
2023/01/25 09:02:23;;;;;;;;;;;;;;;;;;;;;
2023/01/25 09:04:53;;;;;;;45.33;24.88;;;0.40;99.90;;;;;;5007352;28;20483;-87
2023/01/25 09:07:22;;;;;;;42.55;24.25;;;0.40;99.90;;;;;;5011942;28;20045;-84
2023/01/25 09:09:58;;;;;;;37.47;22.35;;;0.40;99.90;;;;;;4995991;28;20057;-84
2023/01/25 09:12:24;;;;;;;35.10;21.27;;;0.50;99.90;;;;;;5013138;28;20060;-84
2023/01/25 09:14:55;;;;;;;34.67;19.85;;;0.60;99.90;;;;;;4979771;28;20065;-86
2023/01/25 09:17:25;;;;;;;38.40;22.92;;;0.60;99.90;;;;;;4995394;28;20149;-84
2023/01/25 09:19:57;;;;;;;45.83;26.67;;;0.60;99.90;;;;;;5011178;28;20129;-86
2023/01/25 09:22:27;;;;;;;46.58;26.50;;;0.60;99.90;;;;;;4995954;28;20452;-85
2023/01/25 09:24:55;;;;;;;44.10;26.08;;;0.50;99.90;;;;;;4995614;28;20038;-84
2023/01/25 09:27:28;;;;;;;45.75;26.00;;;0.50;99.90;;;;;;4995659;28;20549;-85
2023/01/25 09:29:55;;;;;;;50.95;28.10;;;0.50;99.90;;;;;;4999697;28;20482;-84
2023/01/25 09:32:24;;;;;;;43.45;25.55;;;0.50;99.90;;;;;;5005663;28;20017;-85
2023/01/25 09:34:54;;;;;;;50.58;28.45;;;0.50;99.90;;;;;;5035168;28;20030;-85
2023/01/25 09:37:25;;;;;;;46.45;26.17;;;0.50;99.90;;;;;;4999771;28;20124;-84
2023/01/25 09:39:53;;;;;;;47.28;26.75;;;0.50;99.90;;;;;;4999892;28;20502;-85
2023/01/25 09:42:41;;;;;;;49.33;27.35;;;0.50;99.90;;;;;;5016758;28;20034;-85
2023/01/25 09:45:29;;;;;;;41.33;24.35;;;0.50;99.90;;;;;;4999220;28;20044;-84
2023/01/25 09:48:19;;;;;;;42.88;23.98;;;0.50;99.90;;;;;;4999340;28;20088;-84
2023/01/25 09:51:12;;;;;;;42.78;24.55;;;0.50;99.90;;;;;;5015077;28;20065;-84
2023/01/25 09:53:59;;;;;;;46.87;25.70;;;0.40;99.90;;;;;;4998664;28;20026;-85
2023/01/25 09:56:52;;;;;;;45.80;25.90;;;0.40;99.90;;;;;;5001184;28;20288;-85
2023/01/25 09:59:29;;;;;;;39.28;24.23;;;0.50;99.90;;;;;;4998969;28;20037;-84
2023/01/25 10:02:12;;;;;;;40.95;23.15;;;0.50;99.90;;;;;;4998645;28;20064;-85
2023/01/25 10:04:41;;;;;;;;;;;0.50;99.90;;;;;;4991719;28;20034;-85
2023/01/25 10:08:10;;;;;;;41.58;23.55;;;0.50;99.90;;;;;;4998555;28;20353;-85
2023/01/25 10:10:47;;;;;;;51.03;28.48;;;0.50;99.90;;;;;;4974442;28;20027;-85
2023/01/25 10:13:18;;;;;;;49.42;27.38;;;0.40;99.90;;;;;;4958575;28;20039;-84
2023/01/25 10:16:06;;;;;;;46.42;26.42;;;0.40;99.90;;;;;;4980674;28;20062;-83
2023/01/25 10:19:13;;;;;;;46.17;26.17;;;0.50;99.90;;;;;;4981455;28;20042;-84
2023/01/25 10:21:55;;;;;;;43.80;24.88;;;0.50;99.90;;;;;;4997073;28;20037;-84
2023/01/25 10:25:14;;;;;;;42.47;23.90;;;0.50;99.90;;;;;;5014732;28;20554;-84
2023/01/25 10:28:27;;;;;;;38.22;21.42;;;0.60;99.90;;;;;;4954130;29;20404;-84
2023/01/25 10:31:02;;;;;;;38.70;21.80;;;0.60;99.90;;;;;;4957491;28;20093;-85
2023/01/25 10:33:31;;;;;;;39.47;23.13;;;0.70;99.90;;;;;;4994932;28;20030;-84
2023/01/25 10:36:14;;;;;;;36.45;21.60;;;0.70;99.90;;;;;;4981432;28;20048;-84
2023/01/25 10:38:58;;;;;;;38.45;21.83;;;0.80;99.90;;;;;;4979869;28;20510;-84
2023/01/25 10:41:49;;;;;;;37.50;23.00;;;0.80;99.90;;;;;;4971241;28;20034;-84
2023/01/25 10:44:27;;;;;;;42.75;24.27;;;0.90;99.90;;;;;;4996723;28;20054;-84
2023/01/25 10:47:25;;;;;;;44.35;25.73;;;0.90;99.90;;;;;;4996662;28;20117;-85
2023/01/25 10:49:59;;;;;;;47.40;26.17;;;0.80;99.90;;;;;;4996381;28;20041;-84
2023/01/25 10:52:36;;;;;;;56.08;30.83;;;0.70;99.90;;;;;;4996275;28;20106;-83
2023/01/25 10:55:17;;;;;;;47.88;27.30;;;0.70;99.90;;;;;;4985982;28;20455;-84
2023/01/25 10:57:53;;;;;;;54.53;30.77;;;0.70;99.90;;;;;;4995362;28;20031;-85
2023/01/25 11:00:33;;;;;;;53.13;29.33;;;0.70;99.90;;;;;;4994728;28;20125;-84
2023/01/25 11:03:01;;;;;;;52.60;30.50;;;0.70;99.90;;;;;;4973130;28;20031;-85
2023/01/25 11:05:38;;;;;;;49.40;29.27;;;0.70;99.90;;;;;;4969017;28;20038;-86
2023/01/25 11:08:35;;;;;;;51.55;29.88;;;0.80;99.90;;;;;;4993614;28;20041;-84
2023/01/25 11:11:37;;;;;;;53.35;28.98;;;0.80;99.90;;;;;;4978770;28;20096;-84
2023/01/25 11:14:16;;;;;;;55.63;32.00;;;0.80;99.90;;;;;;4976790;28;20034;-85
2023/01/25 11:16:49;;;;;;;59.42;33.28;;;0.70;99.90;;;;;;4977625;28;20026;-85
2023/01/25 11:19:39;;;;;;;61.97;33.90;;;0.70;99.90;;;;;;4974561;28;20098;-84
2023/01/25 11:22:31;;;;;;;58.13;32.35;;;0.70;99.90;;;;;;4971258;28;20042;-85
2023/01/25 11:25:31;;;;;;;60.40;33.22;;;0.70;99.90;;;;;;4976236;28;20105;-87
2023/01/25 11:28:31;;;;;;;57.65;32.63;;;0.70;99.90;;;;;;4976214;28;20038;-86
2023/01/25 11:30:57;;;;;;;54.85;30.85;;;0.70;99.90;;;;;;4971910;28;20050;-86
2023/01/25 11:33:48;;;;;;;60.40;34.38;;;0.70;99.90;;;;;;4981584;28;20031;-87
2023/01/25 11:36:59;;;;;;;57.88;31.83;;;0.70;99.90;;;;;;4968801;28;20057;-84
2023/01/25 11:44:15;;;;;;;54.58;30.08;;;0.70;99.90;;;;;;4967177;28;20031;-86
2023/01/25 11:47:22;;;;;;;48.88;27.42;;;0.70;99.90;;;;;;4925110;29;20050;-84
2023/01/25 11:50:12;;;;;;;54.47;29.63;;;0.70;99.90;;;;;;4985241;28;20042;-86
2023/01/25 11:53:13;;;;;;;50.17;27.30;;;0.70;99.90;;;;;;4994216;28;20088;-86
2023/01/25 11:56:19;;;;;;;53.58;29.10;;;0.80;99.90;;;;;;4989974;28;20422;-85
2023/01/25 11:59:17;;;;;;;54.65;30.90;;;0.80;99.90;;;;;;4993904;28;20073;-85
2023/01/25 12:02:54;;;;;;;60.30;32.95;;;0.80;99.90;;;;;;4994828;28;20029;-86
2023/01/25 12:05:54;;;;;;;62.30;34.55;;;0.80;99.90;;;;;;4896244;29;20118;-84
2023/01/25 12:09:10;;;;;;;61.05;33.15;;;0.70;99.90;;;;;;4932325;29;20419;-85
2023/01/25 12:11:52;;;;;;;57.28;31.45;;;0.70;99.90;;;;;;4933522;29;20072;-83
2023/01/25 12:14:45;;;;;;;66.82;36.40;;;0.70;99.90;;;;;;4935611;28;20039;-85
2023/01/25 12:17:48;;;;;;;59.53;31.77;;;0.70;99.90;;;;;;4998218;28;20041;-86
2023/01/25 12:20:59;;;;;;;57.20;29.80;;;0.70;99.90;;;;;;5012537;28;20042;-84
2023/01/25 12:23:55;;;;;;;53.88;28.02;;;0.70;99.90;;;;;;5013558;28;20062;-85
2023/01/25 12:27:06;;;;;;;52.72;28.95;;;0.70;99.90;;;;;;5010447;28;20030;-85
2023/01/25 12:29:42;;;;;;;64.68;33.47;;;0.70;99.90;;;;;;5003365;28;20390;-85
2023/01/25 12:32:48;;;;;;;64.95;33.75;;;0.60;99.90;;;;;;4999090;28;20041;-85
2023/01/25 12:35:36;;;;;;;62.63;33.22;;;0.50;99.90;;;;;;5008275;28;20033;-85
2023/01/25 12:38:12;;;;;;;55.42;30.73;;;0.50;99.90;;;;;;5001297;28;20037;-84
2023/01/25 12:41:23;;;;;;;59.38;32.47;;;0.60;99.90;;;;;;5003813;28;20089;-86
2023/01/25 12:44:22;;;;;;;63.67;33.40;;;0.60;99.90;;;;;;4976550;28;20046;-84
2023/01/25 12:47:23;;;;;;;60.00;31.23;;;0.60;99.90;;;;;;5022582;28;20124;-85
2023/01/25 12:50:34;;;;;;;69.70;36.53;;;0.60;99.90;;;;;;5030199;28;20082;-85
2023/01/25 12:53:51;;;;;;;73.07;38.97;;;0.60;99.90;;;;;;5025440;28;20041;-84
2023/01/25 12:56:42;;;;;;;70.55;36.22;;;0.50;99.90;;;;;;5008727;28;20045;-84
2023/01/25 12:59:36;;;;;;;72.07;36.40;;;0.50;99.90;;;;;;4987121;28;20038;-84
2023/01/25 13:02:39;;;;;;;65.05;33.75;;;0.50;99.90;;;;;;5014190;28;20063;-85
2023/01/25 13:05:54;;;;;;;63.88;34.17;;;0.50;99.90;;;;;;5006837;28;20037;-84
2023/01/25 13:08:49;;;;;;;65.10;33.70;;;0.60;99.90;;;;;;4994043;28;20034;-84
2023/01/25 13:11:27;;;;;;;63.25;32.88;;;0.60;99.90;;;;;;5006081;28;20038;-84
2023/01/25 13:14:19;;;;;;;68.45;34.45;;;0.70;99.90;;;;;;4983469;28;20126;-85
2023/01/25 13:17:32;;;;;;;64.32;33.13;;;0.70;99.90;;;;;;5007128;28;20026;-85
2023/01/25 13:20:26;;;;;;;66.70;34.65;;;0.70;99.90;;;;;;5005094;28;20036;-84
2023/01/25 13:22:59;;;;;;;68.25;35.30;;;0.70;99.90;;;;;;5015327;28;20121;-85
2023/01/25 13:25:29;;;;;;;72.53;37.72;;;0.60;99.90;;;;;;5008822;28;20049;-85
2023/01/25 13:28:50;;;;;;;69.95;35.97;;;0.70;99.90;;;;;;4954608;28;20426;-85